createdAt,value
2022-09-26T00:01:31.759Z,72.69
2022-09-26T00:11:35.001Z,73.59
2022-09-26T00:21:37.913Z,72.67
2022-09-26T00:31:43.533Z,72.83
2022-09-26T00:41:46.081Z,73.40
2022-09-26T00:51:57.081Z,72.69
2022-09-26T01:02:00.175Z,72.79
2022-09-26T01:12:04.735Z,73.42
2022-09-26T01:22:13.044Z,72.64
2022-09-26T01:32:43.039Z,72.51
2022-09-26T01:43:10.146Z,73.04
2022-09-26T01:53:25.780Z,72.57
2022-09-26T02:03:32.278Z,72.44
2022-09-26T02:13:46.295Z,72.51
2022-09-26T02:23:49.868Z,72.62
2022-09-26T02:33:53.714Z,74.04
2022-09-26T02:44:33.160Z,73.02
2022-09-26T02:54:47.500Z,73.06
2022-09-26T03:04:58.534Z,72.36
2022-09-26T03:15:04.976Z,72.84
2022-09-26T03:25:09.334Z,72.42
2022-09-26T03:35:11.701Z,72.19
2022-09-26T03:45:14.192Z,73.04
2022-09-26T03:55:16.656Z,71.64
2022-09-26T04:05:19.177Z,72.30
2022-09-26T04:15:21.664Z,72.19
2022-09-26T04:25:23.958Z,71.76
2022-09-26T04:35:27.477Z,72.06
2022-09-26T04:45:29.804Z,72.66
2022-09-26T04:55:32.114Z,73.02
2022-09-26T05:05:34.361Z,73.42
2022-09-26T05:15:40.107Z,73.48
2022-09-26T05:26:00.901Z,74.15
2022-09-26T05:36:03.889Z,72.77
2022-09-26T05:46:11.865Z,73.47
2022-09-26T05:56:18.703Z,73.05
2022-09-26T06:06:21.872Z,72.76
2022-09-26T06:16:24.329Z,73.65
2022-09-26T06:26:29.174Z,72.97
2022-09-26T06:36:31.771Z,73.78
2022-09-26T06:46:34.143Z,73.22
2022-09-26T06:56:36.468Z,72.27
2022-09-26T07:06:39.032Z,72.22
2022-09-26T07:16:42.424Z,72.59
2022-09-26T07:26:45.178Z,72.99
2022-09-26T07:36:47.696Z,73.11
2022-09-26T07:47:08.915Z,73.30
2022-09-26T07:57:11.199Z,73.29
2022-09-26T08:07:13.499Z,73.34
2022-09-26T08:17:17.157Z,74.96
2022-09-26T08:27:20.941Z,73.30
2022-09-26T08:37:26.563Z,73.27
2022-09-26T08:47:43.038Z,72.30
2022-09-26T08:57:50.592Z,72.92
2022-09-26T09:07:56.894Z,72.85
2022-09-26T09:18:19.703Z,73.12
2022-09-26T09:28:28.104Z,72.79
2022-09-26T09:38:33.506Z,73.32
2022-09-26T09:48:35.869Z,72.78
2022-09-26T09:58:41.076Z,72.21
2022-09-26T10:08:43.418Z,72.30
2022-09-26T10:19:04.633Z,71.58
2022-09-26T10:29:23.019Z,71.98
2022-09-26T10:39:49.248Z,71.27
2022-09-26T10:49:59.319Z,71.25
2022-09-26T11:00:06.753Z,70.97
2022-09-26T11:10:17.461Z,69.87
2022-09-26T11:20:55.336Z,67.43
2022-09-26T11:31:06.534Z,68.03
2022-09-26T11:41:38.535Z,64.97
2022-09-26T11:51:50.996Z,64.39
2022-09-26T12:02:23.927Z,63.75
2022-09-26T12:13:01.397Z,64.47
2022-09-26T12:23:17.184Z,65.46
2022-09-26T12:33:46.504Z,66.33
2022-09-26T12:44:22.825Z,64.59
2022-09-26T12:54:40.670Z,63.94
2022-09-26T13:04:43.354Z,63.14
2022-09-26T13:15:02.349Z,62.89
2022-09-26T13:25:25.225Z,64.67
2022-09-26T13:35:29.454Z,65.56
2022-09-26T13:45:40.662Z,62.91
2022-09-26T13:55:43.677Z,63.19
2022-09-26T14:05:51.572Z,64.66
2022-09-26T14:16:03.344Z,64.11
2022-09-26T14:26:28.515Z,65.13
2022-09-26T14:36:35.246Z,65.22
2022-09-26T14:46:39.012Z,64.50
2022-09-26T14:56:46.673Z,65.19
2022-09-26T15:06:56.669Z,65.91
2022-09-26T15:17:01.811Z,66.26
2022-09-26T15:27:30.187Z,65.36
2022-09-26T15:37:35.234Z,65.24
2022-09-26T15:47:42.317Z,66.18
2022-09-26T15:57:48.051Z,66.33
2022-09-26T16:07:53.044Z,66.87
2022-09-26T16:17:57.882Z,67.59
2022-09-26T16:28:08.996Z,68.29
2022-09-26T16:38:29.627Z,68.56
2022-09-26T16:48:37.873Z,70.16
2022-09-26T16:58:53.924Z,70.53
2022-09-26T17:09:01.655Z,70.43
2022-09-26T17:19:04.012Z,70.94
2022-09-26T17:29:07.380Z,71.00
2022-09-26T17:39:13.602Z,70.74
2022-09-26T17:49:32.488Z,70.66
2022-09-26T17:59:35.278Z,70.91
2022-09-26T18:09:38.335Z,71.38
2022-09-26T18:19:40.700Z,72.11
2022-09-26T18:29:47.480Z,74.50
2022-09-26T18:39:54.400Z,74.31
2022-09-26T18:49:57.510Z,74.05
2022-09-26T19:00:00.433Z,74.43
2022-09-26T19:10:03.026Z,74.01
2022-09-26T19:20:05.710Z,75.07
2022-09-26T19:30:17.849Z,74.37
2022-09-26T19:40:21.731Z,73.01
2022-09-26T19:50:28.806Z,74.31
2022-09-26T20:00:32.093Z,74.60
2022-09-26T20:10:34.404Z,76.78
2022-09-26T20:20:49.678Z,76.23
2022-09-26T20:40:22.903Z,75.55
2022-09-26T20:50:34.024Z,75.92
2022-09-26T21:00:39.032Z,74.33
2022-09-26T21:10:41.450Z,74.84
2022-09-26T21:20:45.721Z,72.87
2022-09-26T21:30:48.762Z,72.86
2022-09-26T21:40:56.245Z,73.21
2022-09-26T21:51:00.325Z,74.67
2022-09-26T22:01:02.719Z,76.27
2022-09-26T22:11:06.441Z,77.84
2022-09-26T22:21:10.841Z,76.62
2022-09-26T22:31:13.339Z,75.43
2022-09-26T22:41:16.058Z,75.21
2022-09-26T22:51:18.627Z,74.03
2022-09-26T23:01:24.066Z,73.90
2022-09-26T23:11:26.692Z,73.88
2022-09-26T23:21:29.034Z,74.18
2022-09-26T23:31:31.397Z,73.85
2022-09-26T23:41:33.697Z,73.84
2022-09-26T23:51:36.005Z,74.77
